sensor_id;sensor_type;location;lat;lon;timestamp;P1;durP1;ratioP1;P2;durP2;ratioP2
27333;SDS011;14817;57.104;-2.094;2022-12-18T00:01:43;0.70;;;0.20;;
27333;SDS011;14817;57.104;-2.094;2022-12-18T00:04:15;1.77;;;0.93;;
27333;SDS011;14817;57.104;-2.094;2022-12-18T00:06:47;3.40;;;0.50;;
27333;SDS011;14817;57.104;-2.094;2022-12-18T00:09:14;1.85;;;0.47;;
27333;SDS011;14817;57.104;-2.094;2022-12-18T00:11:41;3.65;;;0.50;;
27333;SDS011;14817;57.104;-2.094;2022-12-18T00:14:08;4.38;;;0.63;;
27333;SDS011;14817;57.104;-2.094;2022-12-18T00:16:37;1.17;;;0.50;;
27333;SDS011;14817;57.104;-2.094;2022-12-18T00:19:04;3.22;;;0.47;;
27333;SDS011;14817;57.104;-2.094;2022-12-18T00:21:31;2.55;;;0.40;;
27333;SDS011;14817;57.104;-2.094;2022-12-18T00:23:59;2.30;;;0.40;;
27333;SDS011;14817;57.104;-2.094;2022-12-18T00:26:29;3.38;;;0.40;;
27333;SDS011;14817;57.104;-2.094;2022-12-18T00:29:05;2.65;;;0.30;;
27333;SDS011;14817;57.104;-2.094;2022-12-18T00:31:36;4.00;;;1.50;;
27333;SDS011;14817;57.104;-2.094;2022-12-18T00:34:04;4.35;;;1.20;;
27333;SDS011;14817;57.104;-2.094;2022-12-18T00:36:32;1.80;;;0.40;;
27333;SDS011;14817;57.104;-2.094;2022-12-18T00:39:04;3.67;;;1.05;;
27333;SDS011;14817;57.104;-2.094;2022-12-18T00:41:31;3.13;;;0.47;;
27333;SDS011;14817;57.104;-2.094;2022-12-18T00:44:34;2.22;;;0.40;;
27333;SDS011;14817;57.104;-2.094;2022-12-18T00:47:01;1.67;;;0.45;;
27333;SDS011;14817;57.104;-2.094;2022-12-18T00:49:28;3.72;;;0.80;;
27333;SDS011;14817;57.104;-2.094;2022-12-18T00:51:54;1.00;;;0.50;;
27333;SDS011;14817;57.104;-2.094;2022-12-18T00:54:21;0.63;;;0.35;;
27333;SDS011;14817;57.104;-2.094;2022-12-18T00:56:48;2.58;;;0.50;;
27333;SDS011;14817;57.104;-2.094;2022-12-18T00:59:16;1.25;;;0.43;;
27333;SDS011;14817;57.104;-2.094;2022-12-18T01:01:44;2.90;;;0.65;;
27333;SDS011;14817;57.104;-2.094;2022-12-18T01:04:13;0.82;;;0.63;;
27333;SDS011;14817;57.104;-2.094;2022-12-18T01:06:40;3.03;;;0.70;;
27333;SDS011;14817;57.104;-2.094;2022-12-18T01:09:07;0.98;;;0.50;;
27333;SDS011;14817;57.104;-2.094;2022-12-18T01:11:35;1.65;;;0.90;;
27333;SDS011;14817;57.104;-2.094;2022-12-18T01:14:03;2.65;;;0.80;;
27333;SDS011;14817;57.104;-2.094;2022-12-18T01:16:30;1.30;;;0.70;;
27333;SDS011;14817;57.104;-2.094;2022-12-18T01:18:57;2.25;;;0.63;;
27333;SDS011;14817;57.104;-2.094;2022-12-18T01:21:26;1.60;;;0.70;;
27333;SDS011;14817;57.104;-2.094;2022-12-18T01:23:54;1.67;;;0.60;;
27333;SDS011;14817;57.104;-2.094;2022-12-18T01:26:22;1.73;;;0.75;;
27333;SDS011;14817;57.104;-2.094;2022-12-18T01:28:50;2.65;;;0.80;;
27333;SDS011;14817;57.104;-2.094;2022-12-18T01:31:21;2.47;;;0.80;;
27333;SDS011;14817;57.104;-2.094;2022-12-18T01:33:56;1.70;;;0.50;;
27333;SDS011;14817;57.104;-2.094;2022-12-18T01:36:26;1.23;;;0.55;;
27333;SDS011;14817;57.104;-2.094;2022-12-18T01:39:32;1.13;;;0.47;;
27333;SDS011;14817;57.104;-2.094;2022-12-18T01:41:51;1.52;;;0.50;;
27333;SDS011;14817;57.104;-2.094;2022-12-18T01:49:53;1.80;;;0.63;;
27333;SDS011;14817;57.104;-2.094;2022-12-18T01:52:20;0.45;;;0.35;;
27333;SDS011;14817;57.104;-2.094;2022-12-18T01:54:48;3.35;;;0.40;;
27333;SDS011;14817;57.104;-2.094;2022-12-18T01:57:18;0.73;;;0.45;;
27333;SDS011;14817;57.104;-2.094;2022-12-18T01:59:46;1.52;;;0.70;;
27333;SDS011;14817;57.104;-2.094;2022-12-18T02:02:17;1.73;;;0.50;;
27333;SDS011;14817;57.104;-2.094;2022-12-18T02:04:44;0.75;;;0.40;;
27333;SDS011;14817;57.104;-2.094;2022-12-18T02:10:25;3.80;;;0.70;;
27333;SDS011;14817;57.104;-2.094;2022-12-18T02:18:38;1.50;;;0.60;;
27333;SDS011;14817;57.104;-2.094;2022-12-18T02:21:45;3.25;;;0.70;;
27333;SDS011;14817;57.104;-2.094;2022-12-18T02:24:24;2.10;;;0.60;;
27333;SDS011;14817;57.104;-2.094;2022-12-18T02:26:59;1.17;;;0.50;;
27333;SDS011;14817;57.104;-2.094;2022-12-18T02:29:46;4.65;;;0.65;;
27333;SDS011;14817;57.104;-2.094;2022-12-18T02:32:27;1.15;;;0.45;;
27333;SDS011;14817;57.104;-2.094;2022-12-18T02:34:57;1.33;;;0.32;;
27333;SDS011;14817;57.104;-2.094;2022-12-18T02:37:27;1.23;;;0.50;;
27333;SDS011;14817;57.104;-2.094;2022-12-18T02:39:59;2.45;;;0.60;;
27333;SDS011;14817;57.104;-2.094;2022-12-18T02:42:29;2.33;;;1.35;;
27333;SDS011;14817;57.104;-2.094;2022-12-18T02:44:58;2.38;;;0.35;;
27333;SDS011;14817;57.104;-2.094;2022-12-18T02:47:31;2.47;;;0.40;;
27333;SDS011;14817;57.104;-2.094;2022-12-18T02:53:06;4.18;;;0.47;;
27333;SDS011;14817;57.104;-2.094;2022-12-18T03:04:16;0.57;;;0.30;;
27333;SDS011;14817;57.104;-2.094;2022-12-18T03:06:54;0.82;;;0.30;;
27333;SDS011;14817;57.104;-2.094;2022-12-18T03:12:09;2.22;;;0.60;;
27333;SDS011;14817;57.104;-2.094;2022-12-18T03:17:32;2.70;;;0.60;;
27333;SDS011;14817;57.104;-2.094;2022-12-18T03:20:06;3.08;;;0.80;;
27333;SDS011;14817;57.104;-2.094;2022-12-18T03:22:38;1.25;;;0.43;;
27333;SDS011;14817;57.104;-2.094;2022-12-18T03:25:09;2.00;;;0.37;;
27333;SDS011;14817;57.104;-2.094;2022-12-18T03:27:42;1.25;;;0.20;;
27333;SDS011;14817;57.104;-2.094;2022-12-18T03:30:15;1.90;;;0.40;;
27333;SDS011;14817;57.104;-2.094;2022-12-18T03:32:56;1.23;;;0.20;;
27333;SDS011;14817;57.104;-2.094;2022-12-18T03:35:30;0.63;;;0.40;;
27333;SDS011;14817;57.104;-2.094;2022-12-18T03:38:00;1.92;;;0.50;;
27333;SDS011;14817;57.104;-2.094;2022-12-18T03:43:10;0.95;;;0.35;;
27333;SDS011;14817;57.104;-2.094;2022-12-18T03:45:48;3.58;;;0.47;;
27333;SDS011;14817;57.104;-2.094;2022-12-18T03:48:31;1.08;;;0.38;;
27333;SDS011;14817;57.104;-2.094;2022-12-18T03:51:10;3.22;;;0.40;;
27333;SDS011;14817;57.104;-2.094;2022-12-18T03:54:03;3.80;;;0.50;;
27333;SDS011;14817;57.104;-2.094;2022-12-18T03:56:38;1.33;;;0.60;;
27333;SDS011;14817;57.104;-2.094;2022-12-18T03:59:09;2.58;;;0.30;;
27333;SDS011;14817;57.104;-2.094;2022-12-18T04:01:42;1.45;;;0.57;;
27333;SDS011;14817;57.104;-2.094;2022-12-18T04:04:15;0.93;;;0.60;;
27333;SDS011;14817;57.104;-2.094;2022-12-18T04:06:45;3.27;;;0.60;;
27333;SDS011;14817;57.104;-2.094;2022-12-18T04:09:17;2.92;;;0.80;;
27333;SDS011;14817;57.104;-2.094;2022-12-18T04:11:46;2.20;;;0.90;;
27333;SDS011;14817;57.104;-2.094;2022-12-18T04:14:16;1.00;;;0.50;;
27333;SDS011;14817;57.104;-2.094;2022-12-18T04:16:47;2.53;;;0.63;;
27333;SDS011;14817;57.104;-2.094;2022-12-18T04:19:16;2.95;;;0.40;;
27333;SDS011;14817;57.104;-2.094;2022-12-18T04:21:46;0.60;;;0.30;;
27333;SDS011;14817;57.104;-2.094;2022-12-18T04:24:13;0.40;;;0.28;;
27333;SDS011;14817;57.104;-2.094;2022-12-18T04:26:48;0.63;;;0.28;;
27333;SDS011;14817;57.104;-2.094;2022-12-18T04:29:17;2.13;;;0.50;;
27333;SDS011;14817;57.104;-2.094;2022-12-18T04:31:44;1.42;;;0.45;;
27333;SDS011;14817;57.104;-2.094;2022-12-18T04:34:11;1.00;;;0.40;;
27333;SDS011;14817;57.104;-2.094;2022-12-18T04:36:46;1.33;;;0.70;;
27333;SDS011;14817;57.104;-2.094;2022-12-18T04:39:13;5.07;;;0.65;;
27333;SDS011;14817;57.104;-2.094;2022-12-18T04:41:40;1.13;;;0.70;;
27333;SDS011;14817;57.104;-2.094;2022-12-18T04:44:08;1.23;;;0.70;;
27333;SDS011;14817;57.104;-2.094;2022-12-18T04:46:35;2.45;;;1.00;;
27333;SDS011;14817;57.104;-2.094;2022-12-18T04:49:02;2.45;;;1.00;;
27333;SDS011;14817;57.104;-2.094;2022-12-18T04:51:28;1.48;;;0.80;;
27333;SDS011;14817;57.104;-2.094;2022-12-18T04:53:55;3.67;;;1.35;;
27333;SDS011;14817;57.104;-2.094;2022-12-18T04:56:22;4.45;;;1.65;;
27333;SDS011;14817;57.104;-2.094;2022-12-18T04:58:49;4.43;;;1.40;;
27333;SDS011;14817;57.104;-2.094;2022-12-18T05:01:17;3.25;;;1.45;;
27333;SDS011;14817;57.104;-2.094;2022-12-18T05:03:44;5.35;;;1.85;;
27333;SDS011;14817;57.104;-2.094;2022-12-18T05:06:11;5.20;;;1.90;;
27333;SDS011;14817;57.104;-2.094;2022-12-18T05:08:38;5.30;;;1.60;;
27333;SDS011;14817;57.104;-2.094;2022-12-18T05:11:06;5.15;;;1.83;;
27333;SDS011;14817;57.104;-2.094;2022-12-18T05:13:38;6.00;;;2.88;;
27333;SDS011;14817;57.104;-2.094;2022-12-18T05:16:06;4.60;;;2.42;;
27333;SDS011;14817;57.104;-2.094;2022-12-18T05:18:33;6.32;;;2.88;;
27333;SDS011;14817;57.104;-2.094;2022-12-18T05:21:00;3.08;;;2.20;;
27333;SDS011;14817;57.104;-2.094;2022-12-18T05:23:27;8.43;;;2.88;;
27333;SDS011;14817;57.104;-2.094;2022-12-18T05:25:58;6.53;;;2.90;;
27333;SDS011;14817;57.104;-2.094;2022-12-18T05:28:27;6.00;;;3.10;;
27333;SDS011;14817;57.104;-2.094;2022-12-18T05:30:56;6.25;;;2.97;;
27333;SDS011;14817;57.104;-2.094;2022-12-18T05:33:25;3.75;;;2.55;;
27333;SDS011;14817;57.104;-2.094;2022-12-18T05:35:56;7.50;;;4.40;;
27333;SDS011;14817;57.104;-2.094;2022-12-18T05:38:41;11.43;;;4.65;;
27333;SDS011;14817;57.104;-2.094;2022-12-18T05:41:08;6.18;;;4.15;;
27333;SDS011;14817;57.104;-2.094;2022-12-18T05:43:36;6.60;;;4.20;;
27333;SDS011;14817;57.104;-2.094;2022-12-18T05:46:05;7.35;;;3.70;;
27333;SDS011;14817;57.104;-2.094;2022-12-18T05:48:38;5.38;;;3.88;;
27333;SDS011;14817;57.104;-2.094;2022-12-18T05:51:09;12.23;;;5.72;;
27333;SDS011;14817;57.104;-2.094;2022-12-18T05:53:38;7.72;;;4.22;;
27333;SDS011;14817;57.104;-2.094;2022-12-18T05:56:06;9.95;;;5.13;;
27333;SDS011;14817;57.104;-2.094;2022-12-18T05:58:35;8.02;;;4.40;;
27333;SDS011;14817;57.104;-2.094;2022-12-18T06:01:09;8.57;;;5.00;;
27333;SDS011;14817;57.104;-2.094;2022-12-18T06:03:38;8.88;;;5.13;;
27333;SDS011;14817;57.104;-2.094;2022-12-18T06:09:04;9.15;;;4.63;;
27333;SDS011;14817;57.104;-2.094;2022-12-18T06:11:36;11.68;;;5.10;;
27333;SDS011;14817;57.104;-2.094;2022-12-18T06:14:04;9.38;;;4.25;;
27333;SDS011;14817;57.104;-2.094;2022-12-18T06:16:32;7.18;;;4.30;;
27333;SDS011;14817;57.104;-2.094;2022-12-18T06:19:03;23.48;;;5.13;;
27333;SDS011;14817;57.104;-2.094;2022-12-18T06:21:31;8.95;;;4.97;;
27333;SDS011;14817;57.104;-2.094;2022-12-18T06:23:59;9.13;;;4.18;;
27333;SDS011;14817;57.104;-2.094;2022-12-18T06:26:27;7.38;;;4.50;;
27333;SDS011;14817;57.104;-2.094;2022-12-18T06:28:54;8.80;;;5.32;;
27333;SDS011;14817;57.104;-2.094;2022-12-18T06:31:21;7.90;;;5.15;;
27333;SDS011;14817;57.104;-2.094;2022-12-18T06:33:49;10.68;;;5.35;;
27333;SDS011;14817;57.104;-2.094;2022-12-18T06:36:16;7.68;;;4.20;;
27333;SDS011;14817;57.104;-2.094;2022-12-18T06:38:44;10.65;;;5.05;;
27333;SDS011;14817;57.104;-2.094;2022-12-18T06:41:11;9.98;;;5.43;;
27333;SDS011;14817;57.104;-2.094;2022-12-18T06:43:40;8.10;;;5.22;;
27333;SDS011;14817;57.104;-2.094;2022-12-18T06:46:08;13.52;;;5.32;;
27333;SDS011;14817;57.104;-2.094;2022-12-18T06:48:35;11.75;;;6.22;;
27333;SDS011;14817;57.104;-2.094;2022-12-18T06:51:02;9.77;;;5.80;;
27333;SDS011;14817;57.104;-2.094;2022-12-18T06:53:31;10.10;;;5.18;;
27333;SDS011;14817;57.104;-2.094;2022-12-18T06:56:05;9.20;;;5.35;;
27333;SDS011;14817;57.104;-2.094;2022-12-18T06:58:36;8.25;;;4.53;;
27333;SDS011;14817;57.104;-2.094;2022-12-18T07:01:05;10.88;;;6.13;;
27333;SDS011;14817;57.104;-2.094;2022-12-18T07:03:36;7.75;;;4.95;;
27333;SDS011;14817;57.104;-2.094;2022-12-18T07:06:14;12.05;;;6.05;;
27333;SDS011;14817;57.104;-2.094;2022-12-18T07:08:43;9.60;;;4.63;;
27333;SDS011;14817;57.104;-2.094;2022-12-18T07:11:10;10.93;;;4.93;;
27333;SDS011;14817;57.104;-2.094;2022-12-18T07:13:37;6.53;;;4.60;;
27333;SDS011;14817;57.104;-2.094;2022-12-18T07:16:08;9.38;;;5.20;;
27333;SDS011;14817;57.104;-2.094;2022-12-18T07:18:47;8.30;;;4.85;;
27333;SDS011;14817;57.104;-2.094;2022-12-18T07:21:15;13.40;;;5.63;;
27333;SDS011;14817;57.104;-2.094;2022-12-18T07:23:44;8.23;;;4.60;;
27333;SDS011;14817;57.104;-2.094;2022-12-18T07:26:15;9.93;;;5.37;;
27333;SDS011;14817;57.104;-2.094;2022-12-18T07:28:43;9.38;;;4.53;;
27333;SDS011;14817;57.104;-2.094;2022-12-18T07:31:12;6.60;;;4.13;;
27333;SDS011;14817;57.104;-2.094;2022-12-18T07:33:41;6.60;;;3.35;;
27333;SDS011;14817;57.104;-2.094;2022-12-18T07:36:08;4.90;;;2.95;;
27333;SDS011;14817;57.104;-2.094;2022-12-18T07:38:37;4.85;;;2.55;;
27333;SDS011;14817;57.104;-2.094;2022-12-18T07:41:05;5.10;;;2.50;;
27333;SDS011;14817;57.104;-2.094;2022-12-18T07:43:36;3.33;;;1.73;;
27333;SDS011;14817;57.104;-2.094;2022-12-18T07:46:04;3.97;;;2.08;;
27333;SDS011;14817;57.104;-2.094;2022-12-18T07:48:32;4.25;;;1.75;;
27333;SDS011;14817;57.104;-2.094;2022-12-18T07:51:02;7.15;;;2.22;;
27333;SDS011;14817;57.104;-2.094;2022-12-18T07:53:30;2.17;;;1.52;;
27333;SDS011;14817;57.104;-2.094;2022-12-18T07:55:59;4.00;;;1.38;;
27333;SDS011;14817;57.104;-2.094;2022-12-18T07:58:51;3.35;;;1.80;;
27333;SDS011;14817;57.104;-2.094;2022-12-18T08:01:18;3.33;;;1.63;;
27333;SDS011;14817;57.104;-2.094;2022-12-18T08:03:46;3.50;;;1.63;;
27333;SDS011;14817;57.104;-2.094;2022-12-18T08:06:13;4.03;;;1.70;;
27333;SDS011;14817;57.104;-2.094;2022-12-18T08:08:40;5.97;;;1.65;;
27333;SDS011;14817;57.104;-2.094;2022-12-18T08:11:08;2.97;;;1.23;;
27333;SDS011;14817;57.104;-2.094;2022-12-18T08:13:35;5.85;;;1.23;;
27333;SDS011;14817;57.104;-2.094;2022-12-18T08:16:05;5.25;;;1.35;;
27333;SDS011;14817;57.104;-2.094;2022-12-18T08:18:34;3.30;;;1.17;;
27333;SDS011;14817;57.104;-2.094;2022-12-18T08:21:11;4.05;;;1.08;;
27333;SDS011;14817;57.104;-2.094;2022-12-18T08:23:39;3.05;;;0.73;;
27333;SDS011;14817;57.104;-2.094;2022-12-18T08:26:09;7.85;;;2.17;;
27333;SDS011;14817;57.104;-2.094;2022-12-18T08:28:36;5.00;;;1.02;;
27333;SDS011;14817;57.104;-2.094;2022-12-18T08:31:03;4.22;;;1.23;;
27333;SDS011;14817;57.104;-2.094;2022-12-18T08:33:31;3.03;;;1.02;;
27333;SDS011;14817;57.104;-2.094;2022-12-18T08:35:59;3.63;;;1.00;;
27333;SDS011;14817;57.104;-2.094;2022-12-18T08:38:27;2.80;;;1.10;;
27333;SDS011;14817;57.104;-2.094;2022-12-18T08:40:58;3.90;;;1.05;;
27333;SDS011;14817;57.104;-2.094;2022-12-18T08:43:29;4.25;;;0.95;;
27333;SDS011;14817;57.104;-2.094;2022-12-18T08:46:15;12.65;;;5.22;;
27333;SDS011;14817;57.104;-2.094;2022-12-18T08:48:42;2.08;;;1.35;;
27333;SDS011;14817;57.104;-2.094;2022-12-18T08:51:09;12.57;;;3.72;;
27333;SDS011;14817;57.104;-2.094;2022-12-18T08:53:36;4.18;;;1.20;;
27333;SDS011;14817;57.104;-2.094;2022-12-18T08:56:06;5.65;;;1.25;;
27333;SDS011;14817;57.104;-2.094;2022-12-18T08:58:33;4.10;;;1.30;;
27333;SDS011;14817;57.104;-2.094;2022-12-18T09:01:00;10.00;;;1.70;;
27333;SDS011;14817;57.104;-2.094;2022-12-18T09:03:28;3.33;;;1.23;;
27333;SDS011;14817;57.104;-2.094;2022-12-18T09:05:55;3.20;;;1.00;;
27333;SDS011;14817;57.104;-2.094;2022-12-18T09:08:22;3.25;;;0.85;;
27333;SDS011;14817;57.104;-2.094;2022-12-18T09:10:49;2.67;;;1.08;;
27333;SDS011;14817;57.104;-2.094;2022-12-18T09:13:18;6.60;;;2.90;;
27333;SDS011;14817;57.104;-2.094;2022-12-18T09:15:47;4.50;;;1.90;;
27333;SDS011;14817;57.104;-2.094;2022-12-18T09:18:16;12.35;;;1.63;;
27333;SDS011;14817;57.104;-2.094;2022-12-18T09:20:44;4.80;;;1.38;;
27333;SDS011;14817;57.104;-2.094;2022-12-18T09:23:11;6.40;;;1.85;;
27333;SDS011;14817;57.104;-2.094;2022-12-18T09:25:39;7.95;;;1.50;;
27333;SDS011;14817;57.104;-2.094;2022-12-18T09:28:10;2.53;;;1.80;;
27333;SDS011;14817;57.104;-2.094;2022-12-18T09:30:42;4.43;;;1.85;;
27333;SDS011;14817;57.104;-2.094;2022-12-18T09:33:12;4.20;;;1.70;;
27333;SDS011;14817;57.104;-2.094;2022-12-18T09:35:40;6.47;;;2.53;;
27333;SDS011;14817;57.104;-2.094;2022-12-18T09:38:08;10.63;;;5.25;;
27333;SDS011;14817;57.104;-2.094;2022-12-18T09:40:41;7.72;;;3.63;;
27333;SDS011;14817;57.104;-2.094;2022-12-18T09:43:14;10.13;;;2.70;;
27333;SDS011;14817;57.104;-2.094;2022-12-18T09:45:46;6.82;;;2.28;;
27333;SDS011;14817;57.104;-2.094;2022-12-18T09:48:25;6.90;;;2.30;;
27333;SDS011;14817;57.104;-2.094;2022-12-18T09:50:56;6.05;;;2.22;;
27333;SDS011;14817;57.104;-2.094;2022-12-18T09:53:28;7.93;;;3.17;;
27333;SDS011;14817;57.104;-2.094;2022-12-18T09:55:58;7.72;;;3.20;;
27333;SDS011;14817;57.104;-2.094;2022-12-18T09:58:30;8.13;;;3.60;;
27333;SDS011;14817;57.104;-2.094;2022-12-18T10:01:06;8.13;;;3.85;;
27333;SDS011;14817;57.104;-2.094;2022-12-18T10:03:36;22.25;;;10.40;;
27333;SDS011;14817;57.104;-2.094;2022-12-18T10:06:08;15.00;;;4.95;;
27333;SDS011;14817;57.104;-2.094;2022-12-18T10:16:51;13.48;;;4.03;;
27333;SDS011;14817;57.104;-2.094;2022-12-18T10:19:39;13.20;;;4.70;;
27333;SDS011;14817;57.104;-2.094;2022-12-18T10:27:30;11.77;;;4.03;;
27333;SDS011;14817;57.104;-2.094;2022-12-18T10:29:58;11.63;;;3.72;;
27333;SDS011;14817;57.104;-2.094;2022-12-18T10:32:29;13.63;;;4.00;;
27333;SDS011;14817;57.104;-2.094;2022-12-18T10:34:57;12.63;;;3.70;;
27333;SDS011;14817;57.104;-2.094;2022-12-18T10:37:27;10.18;;;3.40;;
27333;SDS011;14817;57.104;-2.094;2022-12-18T10:40:12;11.00;;;4.10;;
27333;SDS011;14817;57.104;-2.094;2022-12-18T10:43:01;8.27;;;3.33;;
27333;SDS011;14817;57.104;-2.094;2022-12-18T10:45:30;10.25;;;2.95;;
27333;SDS011;14817;57.104;-2.094;2022-12-18T10:47:57;10.63;;;3.60;;
27333;SDS011;14817;57.104;-2.094;2022-12-18T10:50:26;8.05;;;2.83;;
27333;SDS011;14817;57.104;-2.094;2022-12-18T10:53:22;19.05;;;3.03;;
27333;SDS011;14817;57.104;-2.094;2022-12-18T10:55:52;10.68;;;3.00;;
27333;SDS011;14817;57.104;-2.094;2022-12-18T10:58:23;8.05;;;2.42;;
27333;SDS011;14817;57.104;-2.094;2022-12-18T11:03:44;12.38;;;3.05;;
27333;SDS011;14817;57.104;-2.094;2022-12-18T11:06:13;12.07;;;2.80;;
27333;SDS011;14817;57.104;-2.094;2022-12-18T11:08:41;10.90;;;2.60;;
27333;SDS011;14817;57.104;-2.094;2022-12-18T11:11:20;25.02;;;7.03;;
27333;SDS011;14817;57.104;-2.094;2022-12-18T11:14:05;15.27;;;4.30;;
27333;SDS011;14817;57.104;-2.094;2022-12-18T11:16:48;18.63;;;3.70;;
27333;SDS011;14817;57.104;-2.094;2022-12-18T11:19:37;13.45;;;3.15;;
27333;SDS011;14817;57.104;-2.094;2022-12-18T11:24:59;11.63;;;3.20;;
27333;SDS011;14817;57.104;-2.094;2022-12-18T11:28:05;8.65;;;2.63;;
27333;SDS011;14817;57.104;-2.094;2022-12-18T11:31:08;11.18;;;3.53;;
27333;SDS011;14817;57.104;-2.094;2022-12-18T11:33:36;11.98;;;2.97;;
27333;SDS011;14817;57.104;-2.094;2022-12-18T11:36:28;8.40;;;2.30;;
27333;SDS011;14817;57.104;-2.094;2022-12-18T11:39:03;11.82;;;2.35;;
27333;SDS011;14817;57.104;-2.094;2022-12-18T11:41:45;12.77;;;4.57;;
27333;SDS011;14817;57.104;-2.094;2022-12-18T11:47:38;7.53;;;2.05;;
27333;SDS011;14817;57.104;-2.094;2022-12-18T11:50:17;10.95;;;2.13;;
27333;SDS011;14817;57.104;-2.094;2022-12-18T11:52:48;9.30;;;2.70;;
27333;SDS011;14817;57.104;-2.094;2022-12-18T11:55:28;12.95;;;2.55;;
27333;SDS011;14817;57.104;-2.094;2022-12-18T12:20:52;11.20;;;2.20;;
27333;SDS011;14817;57.104;-2.094;2022-12-18T12:26:04;11.23;;;3.50;;
27333;SDS011;14817;57.104;-2.094;2022-12-18T12:28:56;14.05;;;2.80;;
27333;SDS011;14817;57.104;-2.094;2022-12-18T12:34:32;17.40;;;4.10;;
27333;SDS011;14817;57.104;-2.094;2022-12-18T12:39:55;17.33;;;3.40;;
27333;SDS011;14817;57.104;-2.094;2022-12-18T12:45:27;11.45;;;3.80;;
27333;SDS011;14817;57.104;-2.094;2022-12-18T12:48:01;15.60;;;3.92;;
27333;SDS011;14817;57.104;-2.094;2022-12-18T12:50:30;13.88;;;4.43;;
27333;SDS011;14817;57.104;-2.094;2022-12-18T12:53:01;22.55;;;5.30;;
27333;SDS011;14817;57.104;-2.094;2022-12-18T12:55:33;19.08;;;4.85;;
27333;SDS011;14817;57.104;-2.094;2022-12-18T12:58:10;18.35;;;5.07;;
27333;SDS011;14817;57.104;-2.094;2022-12-18T13:00:53;12.10;;;3.67;;
27333;SDS011;14817;57.104;-2.094;2022-12-18T13:08:56;17.77;;;4.68;;
27333;SDS011;14817;57.104;-2.094;2022-12-18T13:11:29;20.40;;;4.82;;
27333;SDS011;14817;57.104;-2.094;2022-12-18T13:14:27;15.85;;;4.82;;
27333;SDS011;14817;57.104;-2.094;2022-12-18T13:22:37;18.15;;;4.40;;
27333;SDS011;14817;57.104;-2.094;2022-12-18T13:28:05;22.75;;;6.10;;
27333;SDS011;14817;57.104;-2.094;2022-12-18T13:30:51;21.85;;;6.35;;
27333;SDS011;14817;57.104;-2.094;2022-12-18T13:38:36;21.92;;;5.82;;
27333;SDS011;14817;57.104;-2.094;2022-12-18T13:43:47;18.38;;;5.00;;
27333;SDS011;14817;57.104;-2.094;2022-12-18T13:48:51;22.48;;;5.00;;
27333;SDS011;14817;57.104;-2.094;2022-12-18T13:54:01;18.58;;;5.50;;
27333;SDS011;14817;57.104;-2.094;2022-12-18T13:57:27;15.32;;;5.35;;
27333;SDS011;14817;57.104;-2.094;2022-12-18T13:59:56;17.00;;;5.57;;
27333;SDS011;14817;57.104;-2.094;2022-12-18T14:02:25;24.55;;;7.80;;
27333;SDS011;14817;57.104;-2.094;2022-12-18T14:04:54;18.23;;;6.03;;
27333;SDS011;14817;57.104;-2.094;2022-12-18T14:07:22;27.35;;;6.60;;
27333;SDS011;14817;57.104;-2.094;2022-12-18T14:09:58;16.55;;;6.63;;
27333;SDS011;14817;57.104;-2.094;2022-12-18T14:12:50;16.77;;;5.13;;
27333;SDS011;14817;57.104;-2.094;2022-12-18T14:18:24;13.57;;;5.88;;
27333;SDS011;14817;57.104;-2.094;2022-12-18T14:20:57;21.77;;;6.15;;
27333;SDS011;14817;57.104;-2.094;2022-12-18T16:02:47;14.57;;;3.83;;
27333;SDS011;14817;57.104;-2.094;2022-12-18T16:05:17;23.33;;;5.07;;
27333;SDS011;14817;57.104;-2.094;2022-12-18T16:07:45;15.18;;;4.20;;
27333;SDS011;14817;57.104;-2.094;2022-12-18T16:10:13;24.48;;;3.70;;
27333;SDS011;14817;57.104;-2.094;2022-12-18T16:12:40;21.33;;;4.40;;
27333;SDS011;14817;57.104;-2.094;2022-12-18T16:15:08;18.38;;;3.15;;
27333;SDS011;14817;57.104;-2.094;2022-12-18T16:17:45;14.23;;;2.92;;
27333;SDS011;14817;57.104;-2.094;2022-12-18T16:20:15;17.48;;;3.03;;
27333;SDS011;14817;57.104;-2.094;2022-12-18T16:22:43;30.88;;;8.68;;
27333;SDS011;14817;57.104;-2.094;2022-12-18T16:28:05;13.50;;;4.18;;
27333;SDS011;14817;57.104;-2.094;2022-12-18T16:30:32;19.02;;;3.95;;
27333;SDS011;14817;57.104;-2.094;2022-12-18T16:33:04;17.75;;;4.30;;
27333;SDS011;14817;57.104;-2.094;2022-12-18T16:35:32;16.80;;;3.42;;
27333;SDS011;14817;57.104;-2.094;2022-12-18T16:37:59;12.15;;;3.80;;
27333;SDS011;14817;57.104;-2.094;2022-12-18T16:40:26;29.40;;;5.80;;
27333;SDS011;14817;57.104;-2.094;2022-12-18T16:42:53;18.30;;;4.53;;
27333;SDS011;14817;57.104;-2.094;2022-12-18T16:45:19;17.90;;;3.60;;
27333;SDS011;14817;57.104;-2.094;2022-12-18T16:47:46;24.35;;;5.78;;
27333;SDS011;14817;57.104;-2.094;2022-12-18T16:50:13;24.10;;;5.72;;
27333;SDS011;14817;57.104;-2.094;2022-12-18T16:52:40;22.95;;;4.50;;
27333;SDS011;14817;57.104;-2.094;2022-12-18T16:55:07;24.02;;;4.45;;
27333;SDS011;14817;57.104;-2.094;2022-12-18T16:57:35;25.25;;;4.05;;
27333;SDS011;14817;57.104;-2.094;2022-12-18T17:00:02;22.92;;;5.07;;
27333;SDS011;14817;57.104;-2.094;2022-12-18T17:02:31;31.63;;;5.63;;
27333;SDS011;14817;57.104;-2.094;2022-12-18T17:04:59;20.98;;;4.85;;
27333;SDS011;14817;57.104;-2.094;2022-12-18T17:07:26;19.48;;;4.30;;
27333;SDS011;14817;57.104;-2.094;2022-12-18T17:09:53;19.15;;;4.22;;
27333;SDS011;14817;57.104;-2.094;2022-12-18T17:12:21;18.80;;;5.15;;
27333;SDS011;14817;57.104;-2.094;2022-12-18T17:14:48;20.63;;;4.07;;
27333;SDS011;14817;57.104;-2.094;2022-12-18T17:17:15;19.75;;;4.78;;
27333;SDS011;14817;57.104;-2.094;2022-12-18T17:19:48;25.48;;;5.95;;
27333;SDS011;14817;57.104;-2.094;2022-12-18T17:22:16;21.60;;;4.90;;
27333;SDS011;14817;57.104;-2.094;2022-12-18T17:24:42;27.58;;;6.07;;
27333;SDS011;14817;57.104;-2.094;2022-12-18T17:27:09;16.48;;;4.55;;
27333;SDS011;14817;57.104;-2.094;2022-12-18T17:29:36;25.75;;;6.43;;
27333;SDS011;14817;57.104;-2.094;2022-12-18T17:32:10;21.27;;;5.30;;
27333;SDS011;14817;57.104;-2.094;2022-12-18T17:34:39;19.98;;;4.68;;
27333;SDS011;14817;57.104;-2.094;2022-12-18T17:37:06;21.95;;;4.40;;
27333;SDS011;14817;57.104;-2.094;2022-12-18T17:39:33;26.13;;;5.68;;
27333;SDS011;14817;57.104;-2.094;2022-12-18T17:42:00;20.67;;;4.93;;
27333;SDS011;14817;57.104;-2.094;2022-12-18T17:44:26;20.20;;;5.10;;
27333;SDS011;14817;57.104;-2.094;2022-12-18T17:46:53;30.48;;;6.03;;
27333;SDS011;14817;57.104;-2.094;2022-12-18T17:49:20;29.58;;;6.53;;
27333;SDS011;14817;57.104;-2.094;2022-12-18T17:51:47;21.13;;;4.95;;
27333;SDS011;14817;57.104;-2.094;2022-12-18T17:54:14;28.73;;;6.63;;
27333;SDS011;14817;57.104;-2.094;2022-12-18T17:56:41;24.52;;;5.40;;
27333;SDS011;14817;57.104;-2.094;2022-12-18T17:59:09;38.35;;;6.35;;
27333;SDS011;14817;57.104;-2.094;2022-12-18T18:01:36;27.92;;;6.57;;
27333;SDS011;14817;57.104;-2.094;2022-12-18T18:04:10;26.52;;;5.68;;
27333;SDS011;14817;57.104;-2.094;2022-12-18T18:06:37;32.55;;;6.00;;
27333;SDS011;14817;57.104;-2.094;2022-12-18T18:09:05;50.20;;;15.77;;
27333;SDS011;14817;57.104;-2.094;2022-12-18T18:11:42;34.20;;;8.75;;
27333;SDS011;14817;57.104;-2.094;2022-12-18T18:14:27;24.88;;;5.93;;
27333;SDS011;14817;57.104;-2.094;2022-12-18T18:16:55;25.45;;;5.53;;
27333;SDS011;14817;57.104;-2.094;2022-12-18T18:19:24;29.40;;;6.22;;
27333;SDS011;14817;57.104;-2.094;2022-12-18T18:21:51;27.60;;;5.88;;
27333;SDS011;14817;57.104;-2.094;2022-12-18T18:24:21;33.53;;;7.05;;
27333;SDS011;14817;57.104;-2.094;2022-12-18T18:26:50;28.45;;;7.10;;
27333;SDS011;14817;57.104;-2.094;2022-12-18T18:29:21;39.38;;;7.47;;
27333;SDS011;14817;57.104;-2.094;2022-12-18T18:31:52;26.73;;;5.78;;
27333;SDS011;14817;57.104;-2.094;2022-12-18T18:34:22;33.97;;;6.70;;
27333;SDS011;14817;57.104;-2.094;2022-12-18T18:36:53;37.35;;;11.30;;
27333;SDS011;14817;57.104;-2.094;2022-12-18T18:39:23;28.58;;;7.43;;